Great Dunmow, United Kingdom
Current Conditions -  °F | °C
As of 5:20 AM on Sunday 21 Dec 2014 (Local Time) from EGSS Reporting Station
Broken Clouds Broken Clouds  
Wind Chill:   Ceiling: 300
Heat Index:   Visibility: 4mi
Dew Point:   Wind: 14mph
Humidity: 100%   Direction: 220°SW
Pressure: 30.36"   Gusts: NA
Location:  51.87°N, 0.36°E
Report Text: EGSS 210520Z 22012KT 7000 BKN003 BKN030 05/05 Q1028
Loading
Personal Weather Stations






























Interactive Weather Map New forecast layout! Learn more

10-Day Weather Forecast

Advertisements
Track Severe Weather on mobile